sensor_id;sensor_type;location;lat;lon;timestamp;pressure;altitude;pressure_sealevel;temperature;humidity
71772;BME280;59606;52.138;5.424;2023-02-13T00:00:11;103943.09;;;7.20;85.44
71772;BME280;59606;52.138;5.424;2023-02-13T00:02:38;103953.47;;;7.20;85.44
71772;BME280;59606;52.138;5.424;2023-02-13T00:05:04;103946.56;;;7.21;86.01
71772;BME280;59606;52.138;5.424;2023-02-13T00:07:31;103946.56;;;7.21;85.79
71772;BME280;59606;52.138;5.424;2023-02-13T00:09:57;103946.56;;;7.21;85.51
71772;BME280;59606;52.138;5.424;2023-02-13T00:12:24;103944.84;;;7.20;85.90
71772;BME280;59606;52.138;5.424;2023-02-13T00:14:50;103936.19;;;7.19;85.66
71772;BME280;59606;52.138;5.424;2023-02-13T00:17:17;103944.84;;;7.20;86.02
71772;BME280;59606;52.138;5.424;2023-02-13T00:19:43;103940.50;;;7.19;86.37
71772;BME280;59606;52.138;5.424;2023-02-13T00:22:10;103942.25;;;7.18;85.91
71772;BME280;59606;52.138;5.424;2023-02-13T00:24:37;103935.28;;;7.17;85.97
71772;BME280;59606;52.138;5.424;2023-02-13T00:27:03;103933.59;;;7.18;85.95
71772;BME280;59606;52.138;5.424;2023-02-13T00:29:30;103927.53;;;7.16;86.03
71772;BME280;59606;52.138;5.424;2023-02-13T00:31:56;103930.09;;;7.14;85.92
71772;BME280;59606;52.138;5.424;2023-02-13T00:34:23;103931.81;;;7.14;85.62
71772;BME280;59606;52.138;5.424;2023-02-13T00:36:49;103922.31;;;7.11;85.60
71772;BME280;59606;52.138;5.424;2023-02-13T00:39:16;103932.69;;;7.11;85.98
71772;BME280;59606;52.138;5.424;2023-02-13T00:41:42;103929.19;;;7.11;85.61
71772;BME280;59606;52.138;5.424;2023-02-13T00:44:09;103920.56;;;7.12;86.01
71772;BME280;59606;52.138;5.424;2023-02-13T00:46:36;103931.81;;;7.12;86.13
71772;BME280;59606;52.138;5.424;2023-02-13T00:49:04;103924.91;;;7.13;86.32
71772;BME280;59606;52.138;5.424;2023-02-13T00:51:31;103922.31;;;7.11;86.34
71772;BME280;59606;52.138;5.424;2023-02-13T00:53:57;103922.31;;;7.11;86.15
71772;BME280;59606;52.138;5.424;2023-02-13T00:56:24;103922.31;;;7.11;86.52
71772;BME280;59606;52.138;5.424;2023-02-13T00:58:50;103924.00;;;7.11;86.67
71772;BME280;59606;52.138;5.424;2023-02-13T01:01:16;103919.69;;;7.09;86.14
71772;BME280;59606;52.138;5.424;2023-02-13T01:03:43;103913.59;;;7.07;85.61
71772;BME280;59606;52.138;5.424;2023-02-13T01:06:10;103923.97;;;7.07;85.99
71772;BME280;59606;52.138;5.424;2023-02-13T01:08:40;103919.66;;;7.06;86.21
71772;BME280;59606;52.138;5.424;2023-02-13T01:11:07;103924.84;;;7.05;86.20
71772;BME280;59606;52.138;5.424;2023-02-13T01:13:33;103927.44;;;7.06;86.11
71772;BME280;59606;52.138;5.424;2023-02-13T01:15:59;103931.75;;;7.04;86.23
71772;BME280;59606;52.138;5.424;2023-02-13T01:18:27;103923.09;;;7.05;86.05
71772;BME280;59606;52.138;5.424;2023-02-13T01:21:01;103926.56;;;7.06;86.60
71772;BME280;59606;52.138;5.424;2023-02-13T01:23:34;103923.09;;;7.05;86.81
71772;BME280;59606;52.138;5.424;2023-02-13T01:26:05;103917.06;;;7.05;87.08
71772;BME280;59606;52.138;5.424;2023-02-13T01:28:33;103920.47;;;7.04;87.12
71772;BME280;59606;52.138;5.424;2023-02-13T01:30:59;103914.44;;;7.03;86.75
71772;BME280;59606;52.138;5.424;2023-02-13T01:33:27;103910.97;;;7.03;86.97
71772;BME280;59606;52.138;5.424;2023-02-13T01:35:55;103909.25;;;7.03;86.54
71772;BME280;59606;52.138;5.424;2023-02-13T01:38:21;103916.16;;;7.03;87.28
71772;BME280;59606;52.138;5.424;2023-02-13T01:40:50;103912.72;;;7.01;86.71
71772;BME280;59606;52.138;5.424;2023-02-13T01:43:17;103907.53;;;7.01;86.66
71772;BME280;59606;52.138;5.424;2023-02-13T01:45:46;103910.94;;;7.00;86.80
71772;BME280;59606;52.138;5.424;2023-02-13T01:48:19;103911.81;;;6.99;87.27
71772;BME280;59606;52.138;5.424;2023-02-13T01:50:51;103906.63;;;6.99;87.04
71772;BME280;59606;52.138;5.424;2023-02-13T01:53:25;103904.91;;;6.99;86.95
71772;BME280;59606;52.138;5.424;2023-02-13T01:56:01;103904.91;;;6.98;86.96
71772;BME280;59606;52.138;5.424;2023-02-13T01:58:31;103900.53;;;6.97;86.76
71772;BME280;59606;52.138;5.424;2023-02-13T02:01:00;103902.28;;;6.95;87.11
71772;BME280;59606;52.138;5.424;2023-02-13T02:03:32;103903.13;;;6.95;86.95
71772;BME280;59606;52.138;5.424;2023-02-13T02:06:01;103893.63;;;6.94;87.30
71772;BME280;59606;52.138;5.424;2023-02-13T02:08:28;103897.91;;;6.92;87.00
71772;BME280;59606;52.138;5.424;2023-02-13T02:11:00;103894.47;;;6.92;87.04
71772;BME280;59606;52.138;5.424;2023-02-13T02:13:29;103900.50;;;6.92;87.37
71772;BME280;59606;52.138;5.424;2023-02-13T02:15:55;103899.66;;;6.93;87.39
71772;BME280;59606;52.138;5.424;2023-02-13T02:18:23;103891.00;;;6.91;87.49
71772;BME280;59606;52.138;5.424;2023-02-13T02:21:03;103885.81;;;6.91;87.67
71772;BME280;59606;52.138;5.424;2023-02-13T02:32:39;103896.19;;;6.91;87.64
71772;BME280;59606;52.138;5.424;2023-02-13T02:41:14;103894.47;;;6.92;87.30
71772;BME280;59606;52.138;5.424;2023-02-13T02:55:43;103883.19;;;6.88;87.98
71772;BME280;59606;52.138;5.424;2023-02-13T02:58:20;103882.34;;;6.89;87.93
71772;BME280;59606;52.138;5.424;2023-02-13T03:01:12;103882.34;;;6.89;87.36
71772;BME280;59606;52.138;5.424;2023-02-13T03:03:59;103878.84;;;6.87;87.29
71772;BME280;59606;52.138;5.424;2023-02-13T03:06:49;103879.72;;;6.86;87.27
71772;BME280;59606;52.138;5.424;2023-02-13T03:09:22;103884.03;;;6.85;87.57
71772;BME280;59606;52.138;5.424;2023-02-13T03:12:13;103881.41;;;6.82;87.51
71772;BME280;59606;52.138;5.424;2023-02-13T03:15:00;103883.13;;;6.83;87.59
71772;BME280;59606;52.138;5.424;2023-02-13T03:17:27;103877.97;;;6.83;87.62
71772;BME280;59606;52.138;5.424;2023-02-13T03:20:35;103878.81;;;6.84;87.55
71772;BME280;59606;52.138;5.424;2023-02-13T03:23:41;103884.91;;;6.86;87.40
71772;BME280;59606;52.138;5.424;2023-02-13T03:27:08;103889.22;;;6.85;87.83
71772;BME280;59606;52.138;5.424;2023-02-13T03:29:55;103888.34;;;6.85;87.59
71772;BME280;59606;52.138;5.424;2023-02-13T03:35:45;103884.91;;;6.84;87.87
71772;BME280;59606;52.138;5.424;2023-02-13T03:38:57;103881.41;;;6.84;87.62
71772;BME280;59606;52.138;5.424;2023-02-13T03:41:33;103879.72;;;6.84;88.43
71772;BME280;59606;52.138;5.424;2023-02-13T03:44:19;103880.56;;;6.85;88.01
71772;BME280;59606;52.138;5.424;2023-02-13T03:46:52;103884.03;;;6.85;88.07
71772;BME280;59606;52.138;5.424;2023-02-13T03:49:28;103884.91;;;6.84;88.36
71772;BME280;59606;52.138;5.424;2023-02-13T03:52:45;103877.97;;;6.83;87.96
71772;BME280;59606;52.138;5.424;2023-02-13T03:55:24;103880.53;;;6.83;88.19
71772;BME280;59606;52.138;5.424;2023-02-13T03:58:20;103880.53;;;6.83;88.18
71772;BME280;59606;52.138;5.424;2023-02-13T04:01:08;103876.22;;;6.82;88.23
71772;BME280;59606;52.138;5.424;2023-02-13T04:03:44;103883.13;;;6.83;88.11
71772;BME280;59606;52.138;5.424;2023-02-13T04:06:15;103884.88;;;6.83;87.96
71772;BME280;59606;52.138;5.424;2023-02-13T04:08:42;103880.53;;;6.83;87.74
71772;BME280;59606;52.138;5.424;2023-02-13T04:11:13;103882.31;;;6.84;87.82
71772;BME280;59606;52.138;5.424;2023-02-13T04:16:20;103874.50;;;6.83;87.78
71772;BME280;59606;52.138;5.424;2023-02-13T04:18:50;103872.78;;;6.82;87.69
71772;BME280;59606;52.138;5.424;2023-02-13T04:21:17;103883.13;;;6.82;87.83
71772;BME280;59606;52.138;5.424;2023-02-13T04:23:44;103878.81;;;6.82;87.94
71772;BME280;59606;52.138;5.424;2023-02-13T04:26:16;103884.00;;;6.81;87.88
71772;BME280;59606;52.138;5.424;2023-02-13T04:28:42;103880.50;;;6.80;88.27
71772;BME280;59606;52.138;5.424;2023-02-13T04:31:09;103881.41;;;6.81;88.17
71772;BME280;59606;52.138;5.424;2023-02-13T04:33:36;103877.06;;;6.80;88.03
71772;BME280;59606;52.138;5.424;2023-02-13T04:36:02;103871.88;;;6.80;88.02
71772;BME280;59606;52.138;5.424;2023-02-13T04:38:29;103877.91;;;6.80;87.87
71772;BME280;59606;52.138;5.424;2023-02-13T04:40:55;103875.34;;;6.79;87.95
71772;BME280;59606;52.138;5.424;2023-02-13T04:43:22;103882.25;;;6.78;88.01
71772;BME280;59606;52.138;5.424;2023-02-13T04:45:50;103871.00;;;6.78;88.21
71772;BME280;59606;52.138;5.424;2023-02-13T04:48:17;103867.56;;;6.79;87.77
71772;BME280;59606;52.138;5.424;2023-02-13T04:50:43;103875.34;;;6.79;87.98
71772;BME280;59606;52.138;5.424;2023-02-13T04:53:10;103866.69;;;6.78;88.33
71772;BME280;59606;52.138;5.424;2023-02-13T04:55:36;103866.69;;;6.80;88.25
71772;BME280;59606;52.138;5.424;2023-02-13T04:58:03;103871.88;;;6.80;88.35
71772;BME280;59606;52.138;5.424;2023-02-13T05:00:29;103868.41;;;6.78;88.16
71772;BME280;59606;52.138;5.424;2023-02-13T05:03:03;103864.09;;;6.78;88.15
71772;BME280;59606;52.138;5.424;2023-02-13T05:05:29;103857.19;;;6.77;88.54
71772;BME280;59606;52.138;5.424;2023-02-13T05:07:56;103855.44;;;6.76;87.99
71772;BME280;59606;52.138;5.424;2023-02-13T05:10:22;103854.56;;;6.76;88.52
71772;BME280;59606;52.138;5.424;2023-02-13T05:12:49;103853.72;;;6.75;88.32
71772;BME280;59606;52.138;5.424;2023-02-13T05:15:15;103852.84;;;6.75;88.00
71772;BME280;59606;52.138;5.424;2023-02-13T05:17:45;103846.78;;;6.74;88.26
71772;BME280;59606;52.138;5.424;2023-02-13T05:20:13;103848.50;;;6.74;88.44
71772;BME280;59606;52.138;5.424;2023-02-13T05:22:47;103851.09;;;6.74;88.73
71772;BME280;59606;52.138;5.424;2023-02-13T05:25:34;103851.09;;;6.74;88.58
71772;BME280;59606;52.138;5.424;2023-02-13T05:28:01;103848.50;;;6.72;88.60
71772;BME280;59606;52.138;5.424;2023-02-13T05:30:28;103843.31;;;6.72;88.55
71772;BME280;59606;52.138;5.424;2023-02-13T05:32:55;103845.91;;;6.74;88.91
71772;BME280;59606;52.138;5.424;2023-02-13T05:35:22;103841.59;;;6.73;89.03
71772;BME280;59606;52.138;5.424;2023-02-13T05:37:48;103843.31;;;6.72;88.85
71772;BME280;59606;52.138;5.424;2023-02-13T05:40:15;103843.31;;;6.72;89.13
71772;BME280;59606;52.138;5.424;2023-02-13T05:42:42;103844.16;;;6.73;88.51
71772;BME280;59606;52.138;5.424;2023-02-13T05:45:09;103845.03;;;6.73;88.98
71772;BME280;59606;52.138;5.424;2023-02-13T05:47:35;103850.22;;;6.73;89.00
71772;BME280;59606;52.138;5.424;2023-02-13T05:50:02;103849.34;;;6.73;88.78
71772;BME280;59606;52.138;5.424;2023-02-13T05:52:29;103846.75;;;6.73;89.25
71772;BME280;59606;52.138;5.424;2023-02-13T05:54:55;103847.63;;;6.73;89.06
71772;BME280;59606;52.138;5.424;2023-02-13T05:57:21;103850.22;;;6.73;89.21
71772;BME280;59606;52.138;5.424;2023-02-13T05:59:48;103847.63;;;6.73;88.93
71772;BME280;59606;52.138;5.424;2023-02-13T06:02:14;103846.75;;;6.73;89.36
71772;BME280;59606;52.138;5.424;2023-02-13T06:04:41;103840.72;;;6.72;89.59
71772;BME280;59606;52.138;5.424;2023-02-13T06:07:07;103850.22;;;6.73;89.38
71772;BME280;59606;52.138;5.424;2023-02-13T06:09:34;103849.34;;;6.73;89.47
71772;BME280;59606;52.138;5.424;2023-02-13T06:12:00;103852.81;;;6.72;89.38
71772;BME280;59606;52.138;5.424;2023-02-13T06:14:26;103852.81;;;6.72;89.42
71772;BME280;59606;52.138;5.424;2023-02-13T06:16:53;103843.31;;;6.71;89.64
71772;BME280;59606;52.138;5.424;2023-02-13T06:19:19;103843.31;;;6.71;89.81
71772;BME280;59606;52.138;5.424;2023-02-13T06:21:46;103852.81;;;6.72;89.85
71772;BME280;59606;52.138;5.424;2023-02-13T06:24:12;103855.41;;;6.72;89.78
71772;BME280;59606;52.138;5.424;2023-02-13T06:26:39;103839.00;;;6.71;89.95
71772;BME280;59606;52.138;5.424;2023-02-13T06:29:05;103851.94;;;6.73;90.44
71772;BME280;59606;52.138;5.424;2023-02-13T06:31:32;103845.91;;;6.72;90.39
71772;BME280;59606;52.138;5.424;2023-02-13T06:33:59;103859.72;;;6.73;90.32
71772;BME280;59606;52.138;5.424;2023-02-13T06:36:25;103859.75;;;6.74;90.25
71772;BME280;59606;52.138;5.424;2023-02-13T06:38:52;103851.94;;;6.73;90.05
71772;BME280;59606;52.138;5.424;2023-02-13T06:41:18;103859.72;;;6.73;90.08
71772;BME280;59606;52.138;5.424;2023-02-13T06:43:45;103858.84;;;6.74;90.26
71772;BME280;59606;52.138;5.424;2023-02-13T06:46:11;103856.25;;;6.74;90.15
71772;BME280;59606;52.138;5.424;2023-02-13T06:48:38;103857.13;;;6.73;90.33
71772;BME280;59606;52.138;5.424;2023-02-13T06:51:04;103857.16;;;6.74;90.32
71772;BME280;59606;52.138;5.424;2023-02-13T06:53:31;103863.16;;;6.73;90.72
71772;BME280;59606;52.138;5.424;2023-02-13T06:55:57;103859.75;;;6.74;90.90
71772;BME280;59606;52.138;5.424;2023-02-13T06:58:24;103861.47;;;6.75;91.00
71772;BME280;59606;52.138;5.424;2023-02-13T07:00:52;103858.88;;;6.75;90.76
71772;BME280;59606;52.138;5.424;2023-02-13T07:03:18;103863.19;;;6.76;91.16
71772;BME280;59606;52.138;5.424;2023-02-13T07:05:45;103870.13;;;6.76;90.65
71772;BME280;59606;52.138;5.424;2023-02-13T07:08:12;103871.84;;;6.77;90.92
71772;BME280;59606;52.138;5.424;2023-02-13T07:10:41;103871.00;;;6.78;91.21
71772;BME280;59606;52.138;5.424;2023-02-13T07:13:08;103865.78;;;6.76;91.11
71772;BME280;59606;52.138;5.424;2023-02-13T07:15:36;103868.38;;;6.76;90.91
71772;BME280;59606;52.138;5.424;2023-02-13T07:18:03;103877.88;;;6.76;91.08
71772;BME280;59606;52.138;5.424;2023-02-13T07:20:31;103878.75;;;6.76;91.39
71772;BME280;59606;52.138;5.424;2023-02-13T07:22:59;103880.50;;;6.77;90.99
71772;BME280;59606;52.138;5.424;2023-02-13T07:25:26;103873.59;;;6.78;91.28
71772;BME280;59606;52.138;5.424;2023-02-13T07:27:53;103874.47;;;6.80;91.10
71772;BME280;59606;52.138;5.424;2023-02-13T07:30:20;103868.41;;;6.79;91.33
71772;BME280;59606;52.138;5.424;2023-02-13T07:32:46;103874.50;;;6.81;91.23
71772;BME280;59606;52.138;5.424;2023-02-13T07:35:13;103864.13;;;6.81;91.36
71772;BME280;59606;52.138;5.424;2023-02-13T07:37:39;103864.13;;;6.83;91.37
71772;BME280;59606;52.138;5.424;2023-02-13T07:40:06;103871.91;;;6.83;91.55
71772;BME280;59606;52.138;5.424;2023-02-13T07:42:33;103871.06;;;6.85;91.43
71772;BME280;59606;52.138;5.424;2023-02-13T07:45:00;103875.44;;;6.88;91.51
71772;BME280;59606;52.138;5.424;2023-02-13T07:47:26;103869.38;;;6.88;91.42
71772;BME280;59606;52.138;5.424;2023-02-13T07:49:53;103871.09;;;6.89;91.50
71772;BME280;59606;52.138;5.424;2023-02-13T07:52:20;103872.88;;;6.91;91.80
71772;BME280;59606;52.138;5.424;2023-02-13T07:54:46;103872.88;;;6.93;91.77
71772;BME280;59606;52.138;5.424;2023-02-13T07:57:14;103883.25;;;6.97;91.65
71772;BME280;59606;52.138;5.424;2023-02-13T07:59:41;103880.69;;;6.99;91.73
71772;BME280;59606;52.138;5.424;2023-02-13T08:02:13;103890.25;;;7.03;91.90
71772;BME280;59606;52.138;5.424;2023-02-13T08:04:40;103892.88;;;7.06;91.86
71772;BME280;59606;52.138;5.424;2023-02-13T08:07:12;103891.16;;;7.09;91.90
71772;BME280;59606;52.138;5.424;2023-02-13T08:09:39;103892.91;;;7.14;91.62
71772;BME280;59606;52.138;5.424;2023-02-13T08:12:24;103889.53;;;7.18;92.06
71772;BME280;59606;52.138;5.424;2023-02-13T08:14:52;103900.78;;;7.21;91.79
71772;BME280;59606;52.138;5.424;2023-02-13T08:17:19;103904.28;;;7.25;91.71
71772;BME280;59606;52.138;5.424;2023-02-13T08:19:45;103904.31;;;7.28;91.80
71772;BME280;59606;52.138;5.424;2023-02-13T08:22:11;103908.66;;;7.32;91.82
71772;BME280;59606;52.138;5.424;2023-02-13T08:24:38;103911.25;;;7.33;91.28
71772;BME280;59606;52.138;5.424;2023-02-13T08:27:04;103907.81;;;7.38;91.43
71772;BME280;59606;52.138;5.424;2023-02-13T08:29:31;103907.84;;;7.39;91.68
71772;BME280;59606;52.138;5.424;2023-02-13T08:31:58;103901.81;;;7.43;91.48
71772;BME280;59606;52.138;5.424;2023-02-13T08:34:24;103905.28;;;7.47;91.10
71772;BME280;59606;52.138;5.424;2023-02-13T08:36:51;103909.63;;;7.51;91.41
71772;BME280;59606;52.138;5.424;2023-02-13T08:39:17;103911.41;;;7.53;91.15
71772;BME280;59606;52.138;5.424;2023-02-13T08:41:43;103902.78;;;7.57;91.59
71772;BME280;59606;52.138;5.424;2023-02-13T08:44:10;103897.63;;;7.62;91.21
71772;BME280;59606;52.138;5.424;2023-02-13T08:46:36;103899.38;;;7.66;91.70
71772;BME280;59606;52.138;5.424;2023-02-13T08:49:03;103902.91;;;7.71;91.59
71772;BME280;59606;52.138;5.424;2023-02-13T08:51:30;103899.44;;;7.75;91.05
71772;BME280;59606;52.138;5.424;2023-02-13T08:53:56;103904.66;;;7.80;91.23
71772;BME280;59606;52.138;5.424;2023-02-13T08:56:23;103907.31;;;7.86;90.89
71772;BME280;59606;52.138;5.424;2023-02-13T08:58:49;103896.09;;;7.92;91.30
71772;BME280;59606;52.138;5.424;2023-02-13T09:01:16;103903.03;;;7.96;90.41
71772;BME280;59606;52.138;5.424;2023-02-13T09:03:42;103899.59;;;8.00;90.31
71772;BME280;59606;52.138;5.424;2023-02-13T09:06:09;103896.16;;;8.07;90.38
71772;BME280;59606;52.138;5.424;2023-02-13T09:08:35;103892.72;;;8.14;90.46
71772;BME280;59606;52.138;5.424;2023-02-13T09:11:03;103891.03;;;8.21;89.54
71772;BME280;59606;52.138;5.424;2023-02-13T09:13:33;103895.38;;;8.26;89.85
71772;BME280;59606;52.138;5.424;2023-02-13T09:16:02;103892.81;;;8.33;89.27
71772;BME280;59606;52.138;5.424;2023-02-13T09:18:32;103890.28;;;8.39;89.63
71772;BME280;59606;52.138;5.424;2023-02-13T09:21:10;103900.69;;;8.43;88.99
71772;BME280;59606;52.138;5.424;2023-02-13T09:23:39;103901.56;;;8.47;88.72
71772;BME280;59606;52.138;5.424;2023-02-13T09:26:09;103900.69;;;8.48;88.28
71772;BME280;59606;52.138;5.424;2023-02-13T09:28:36;103893.75;;;8.47;88.05
71772;BME280;59606;52.138;5.424;2023-02-13T09:31:24;103895.50;;;8.49;88.46
71772;BME280;59606;52.138;5.424;2023-02-13T09:33:54;103894.66;;;8.57;88.25
71772;BME280;59606;52.138;5.424;2023-02-13T09:36:22;103899.00;;;8.64;87.72
71772;BME280;59606;52.138;5.424;2023-02-13T09:38:55;103891.19;;;8.61;87.41
71772;BME280;59606;52.138;5.424;2023-02-13T09:41:31;103896.41;;;8.68;87.26
71772;BME280;59606;52.138;5.424;2023-02-13T09:46:39;103891.22;;;8.78;87.29
71772;BME280;59606;52.138;5.424;2023-02-13T09:49:14;103886.91;;;8.87;87.31
71772;BME280;59606;52.138;5.424;2023-02-13T09:51:43;103889.50;;;8.95;86.96
71772;BME280;59606;52.138;5.424;2023-02-13T09:54:15;103887.78;;;8.97;86.15
71772;BME280;59606;52.138;5.424;2023-02-13T09:56:52;103890.41;;;9.00;86.35
71772;BME280;59606;52.138;5.424;2023-02-13T10:07:48;103895.59;;;9.14;85.31
71772;BME280;59606;52.138;5.424;2023-02-13T10:18:14;103889.53;;;9.44;84.02
71772;BME280;59606;52.138;5.424;2023-02-13T10:20:46;103891.25;;;9.45;83.07
71772;BME280;59606;52.138;5.424;2023-02-13T10:23:25;103887.81;;;9.32;83.14
71772;BME280;59606;52.138;5.424;2023-02-13T10:26:01;103890.38;;;9.38;83.54
71772;BME280;59606;52.138;5.424;2023-02-13T10:28:37;103891.25;;;9.50;84.08
71772;BME280;59606;52.138;5.424;2023-02-13T10:31:13;103890.38;;;9.54;83.11
71772;BME280;59606;52.138;5.424;2023-02-13T10:33:48;103886.03;;;9.57;82.78
71772;BME280;59606;52.138;5.424;2023-02-13T10:36:19;103886.03;;;9.66;82.86
71772;BME280;59606;52.138;5.424;2023-02-13T10:44:06;103882.53;;;9.74;82.55
71772;BME280;59606;52.138;5.424;2023-02-13T10:52:25;103869.50;;;9.80;82.30
71772;BME280;59606;52.138;5.424;2023-02-13T11:00:24;103879.91;;;9.90;81.18
71772;BME280;59606;52.138;5.424;2023-02-13T11:02:57;103863.41;;;9.87;80.85
71772;BME280;59606;52.138;5.424;2023-02-13T11:05:30;103869.47;;;9.87;81.29
71772;BME280;59606;52.138;5.424;2023-02-13T11:07:57;103860.78;;;9.93;81.12
71772;BME280;59606;52.138;5.424;2023-02-13T11:10:26;103858.16;;;9.98;80.57
71772;BME280;59606;52.138;5.424;2023-02-13T11:12:53;103858.16;;;10.01;80.86
71772;BME280;59606;52.138;5.424;2023-02-13T11:17:52;103851.16;;;10.10;81.00
71772;BME280;59606;52.138;5.424;2023-02-13T11:20:26;103843.31;;;10.18;80.86
71772;BME280;59606;52.138;5.424;2023-02-13T11:22:54;103852.00;;;10.26;80.40
71772;BME280;59606;52.138;5.424;2023-02-13T11:25:24;103841.53;;;10.29;79.89
71772;BME280;59606;52.138;5.424;2023-02-13T11:28:06;103842.38;;;10.36;80.20
71772;BME280;59606;52.138;5.424;2023-02-13T11:30:35;103844.09;;;10.43;79.55
71772;BME280;59606;52.138;5.424;2023-02-13T11:33:20;103838.00;;;10.43;79.46
71772;BME280;59606;52.138;5.424;2023-02-13T11:35:47;103840.56;;;10.46;79.92
71772;BME280;59606;52.138;5.424;2023-02-13T11:40:42;103830.16;;;10.50;78.72
71772;BME280;59606;52.138;5.424;2023-02-13T11:43:30;103825.75;;;10.55;79.05
71772;BME280;59606;52.138;5.424;2023-02-13T11:46:11;103828.31;;;10.63;78.83
71772;BME280;59606;52.138;5.424;2023-02-13T11:48:43;103820.50;;;10.63;79.32
71772;BME280;59606;52.138;5.424;2023-02-13T11:51:09;103822.19;;;10.66;78.70
71772;BME280;59606;52.138;5.424;2023-02-13T11:53:38;103824.78;;;10.70;77.95
71772;BME280;59606;52.138;5.424;2023-02-13T11:56:14;103819.50;;;10.78;78.22
71772;BME280;59606;52.138;5.424;2023-02-13T11:58:41;103815.09;;;10.88;78.10
71772;BME280;59606;52.138;5.424;2023-02-13T12:01:25;103811.63;;;10.87;78.11
71772;BME280;59606;52.138;5.424;2023-02-13T12:04:15;103797.69;;;10.88;77.74
71772;BME280;59606;52.138;5.424;2023-02-13T12:09:32;103796.81;;;10.89;77.51
71772;BME280;59606;52.138;5.424;2023-02-13T12:12:00;103794.22;;;10.88;77.48
71772;BME280;59606;52.138;5.424;2023-02-13T12:14:37;103790.72;;;10.93;77.14
71772;BME280;59606;52.138;5.424;2023-02-13T12:17:16;103793.31;;;10.93;77.63
71772;BME280;59606;52.138;5.424;2023-02-13T12:19:57;103792.44;;;10.94;76.75
71772;BME280;59606;52.138;5.424;2023-02-13T12:22:37;103797.66;;;10.94;77.12
71772;BME280;59606;52.138;5.424;2023-02-13T12:25:25;103793.25;;;11.01;76.90
71772;BME280;59606;52.138;5.424;2023-02-13T12:28:17;103792.44;;;10.90;76.26
71772;BME280;59606;52.138;5.424;2023-02-13T12:31:02;103791.72;;;10.72;76.79
71772;BME280;59606;52.138;5.424;2023-02-13T12:33:47;103776.94;;;10.77;77.46
71772;BME280;59606;52.138;5.424;2023-02-13T12:36:41;103787.28;;;10.87;76.94
71772;BME280;59606;52.138;5.424;2023-02-13T12:56:00;103776.63;;;11.09;76.38
71772;BME280;59606;52.138;5.424;2023-02-13T12:58:49;103777.41;;;11.18;76.27
71772;BME280;59606;52.138;5.424;2023-02-13T13:02:04;103763.41;;;11.25;76.13
71772;BME280;59606;52.138;5.424;2023-02-13T13:10:22;103748.56;;;11.31;75.33
71772;BME280;59606;52.138;5.424;2023-02-13T13:13:13;103746.81;;;11.32;75.63
71772;BME280;59606;52.138;5.424;2023-02-13T13:15:57;103749.34;;;11.38;75.64
71772;BME280;59606;52.138;5.424;2023-02-13T13:18:34;103739.72;;;11.45;74.78
71772;BME280;59606;52.138;5.424;2023-02-13T13:21:36;103744.00;;;11.50;75.49
71772;BME280;59606;52.138;5.424;2023-02-13T13:24:14;103744.78;;;11.55;75.01
71772;BME280;59606;52.138;5.424;2023-02-13T13:26:48;103735.22;;;11.56;74.47
71772;BME280;59606;52.138;5.424;2023-02-13T13:29:23;103729.13;;;11.57;74.58
71772;BME280;59606;52.138;5.424;2023-02-13T13:31:54;103727.38;;;11.56;74.32
71772;BME280;59606;52.138;5.424;2023-02-13T13:34:25;103724.72;;;11.61;74.21
71772;BME280;59606;52.138;5.424;2023-02-13T13:39:53;103713.28;;;11.69;74.28
71772;BME280;59606;52.138;5.424;2023-02-13T13:42:30;103715.06;;;11.67;74.25
71772;BME280;59606;52.138;5.424;2023-02-13T13:50:19;103703.56;;;11.79;73.99
71772;BME280;59606;52.138;5.424;2023-02-13T13:53:11;103702.72;;;11.78;74.10
71772;BME280;59606;52.138;5.424;2023-02-13T14:03:56;103694.81;;;11.83;73.30
71772;BME280;59606;52.138;5.424;2023-02-13T14:11:56;103697.44;;;11.85;73.56
71772;BME280;59606;52.138;5.424;2023-02-13T14:16:54;103690.50;;;11.80;73.10
71772;BME280;59606;52.138;5.424;2023-02-13T14:19:28;103687.84;;;11.82;73.30
71772;BME280;59606;52.138;5.424;2023-02-13T14:24:51;103685.28;;;11.80;73.26
71772;BME280;59606;52.138;5.424;2023-02-13T14:29:50;103683.63;;;11.75;73.25
71772;BME280;59606;52.138;5.424;2023-02-13T14:32:21;103679.31;;;11.69;73.26
71772;BME280;59606;52.138;5.424;2023-02-13T14:34:57;103689.00;;;11.64;73.50
71772;BME280;59606;52.138;5.424;2023-02-13T14:37:32;103683.88;;;11.55;73.59
71772;BME280;59606;52.138;5.424;2023-02-13T14:42:48;103684.06;;;11.41;73.48
71772;BME280;59606;52.138;5.424;2023-02-13T14:45:23;103677.13;;;11.39;73.94
71772;BME280;59606;52.138;5.424;2023-02-13T14:47:54;103671.97;;;11.34;73.90
71772;BME280;59606;52.138;5.424;2023-02-13T14:50:33;103674.63;;;11.31;73.78
71772;BME280;59606;52.138;5.424;2023-02-13T14:53:08;103674.63;;;11.29;73.90
71772;BME280;59606;52.138;5.424;2023-02-13T14:55:41;103673.81;;;11.26;73.99
71772;BME280;59606;52.138;5.424;2023-02-13T14:58:24;103675.56;;;11.25;74.25
71772;BME280;59606;52.138;5.424;2023-02-13T15:00:55;103671.22;;;11.23;74.22
71772;BME280;59606;52.138;5.424;2023-02-13T15:03:47;103666.94;;;11.20;74.26
71772;BME280;59606;52.138;5.424;2023-02-13T15:06:27;103660.84;;;11.18;74.84
71772;BME280;59606;52.138;5.424;2023-02-13T15:08:55;103662.63;;;11.15;74.73
71772;BME280;59606;52.138;5.424;2023-02-13T15:11:40;103674.81;;;11.13;75.00
71772;BME280;59606;52.138;5.424;2023-02-13T15:17:00;103669.63;;;11.11;75.31
71772;BME280;59606;52.138;5.424;2023-02-13T15:19:28;103671.38;;;11.09;75.24
71772;BME280;59606;52.138;5.424;2023-02-13T15:22:00;103669.66;;;11.06;75.48
71772;BME280;59606;52.138;5.424;2023-02-13T15:24:46;103671.41;;;11.06;75.51
71772;BME280;59606;52.138;5.424;2023-02-13T15:27:20;103669.72;;;11.02;75.62
71772;BME280;59606;52.138;5.424;2023-02-13T15:30:14;103667.16;;;11.00;75.81
71772;BME280;59606;52.138;5.424;2023-02-13T15:32:43;103670.66;;;10.98;75.80
71772;BME280;59606;52.138;5.424;2023-02-13T15:37:52;103658.56;;;10.91;76.05